sensor_id;sensor_type;location;lat;lon;timestamp;pressure;altitude;pressure_sealevel;temperature;humidity
47811;BME280;33575;52.600;7.318;2023-06-14T00:00:20;101464.59;;;20.15;52.67
47811;BME280;33575;52.600;7.318;2023-06-14T00:02:50;101463.80;;;20.09;53.37
47811;BME280;33575;52.600;7.318;2023-06-14T00:05:21;101467.63;;;20.03;53.31
47811;BME280;33575;52.600;7.318;2023-06-14T00:07:51;101467.47;;;20.00;53.40
47811;BME280;33575;52.600;7.318;2023-06-14T00:10:21;101466.07;;;19.97;53.95
47811;BME280;33575;52.600;7.318;2023-06-14T00:12:52;101469.21;;;19.93;53.41
47811;BME280;33575;52.600;7.318;2023-06-14T00:15:22;101470.89;;;19.89;53.54
47811;BME280;33575;52.600;7.318;2023-06-14T00:17:52;101469.37;;;19.85;53.70
47811;BME280;33575;52.600;7.318;2023-06-14T00:20:23;101466.02;;;19.84;53.40
47811;BME280;33575;52.600;7.318;2023-06-14T00:22:53;101461.87;;;19.76;53.77
47811;BME280;33575;52.600;7.318;2023-06-14T00:25:28;101463.41;;;19.70;54.21
47811;BME280;33575;52.600;7.318;2023-06-14T00:27:54;101464.64;;;19.70;54.03
47811;BME280;33575;52.600;7.318;2023-06-14T00:30:24;101464.65;;;19.71;53.87
47811;BME280;33575;52.600;7.318;2023-06-14T00:32:54;101464.62;;;19.66;54.69
47811;BME280;33575;52.600;7.318;2023-06-14T00:35:25;101465.55;;;19.56;54.70
47811;BME280;33575;52.600;7.318;2023-06-14T00:37:55;101465.58;;;19.52;54.98
47811;BME280;33575;52.600;7.318;2023-06-14T00:40:26;101469.62;;;19.47;55.65
47811;BME280;33575;52.600;7.318;2023-06-14T00:42:56;101470.66;;;19.41;55.05
47811;BME280;33575;52.600;7.318;2023-06-14T00:45:26;101471.21;;;19.34;55.50
47811;BME280;33575;52.600;7.318;2023-06-14T00:47:57;101471.63;;;19.30;55.41
47811;BME280;33575;52.600;7.318;2023-06-14T00:50:27;101471.43;;;19.28;55.21
47811;BME280;33575;52.600;7.318;2023-06-14T00:52:57;101470.64;;;19.23;56.34
47811;BME280;33575;52.600;7.318;2023-06-14T00:55:28;101474.41;;;19.20;55.72
47811;BME280;33575;52.600;7.318;2023-06-14T00:57:58;101476.57;;;19.19;56.13
47811;BME280;33575;52.600;7.318;2023-06-14T01:00:28;101479.94;;;19.15;56.17
47811;BME280;33575;52.600;7.318;2023-06-14T01:02:59;101478.48;;;19.09;56.26
47811;BME280;33575;52.600;7.318;2023-06-14T01:05:30;101478.63;;;19.07;56.36
47811;BME280;33575;52.600;7.318;2023-06-14T01:08:21;101481.99;;;19.06;56.30
47811;BME280;33575;52.600;7.318;2023-06-14T01:10:37;101486.96;;;19.03;57.06
47811;BME280;33575;52.600;7.318;2023-06-14T01:13:07;101486.61;;;19.03;56.08
47811;BME280;33575;52.600;7.318;2023-06-14T01:15:31;101489.41;;;19.00;56.16
47811;BME280;33575;52.600;7.318;2023-06-14T01:18:01;101495.95;;;18.96;56.26
47811;BME280;33575;52.600;7.318;2023-06-14T01:20:33;101495.51;;;18.93;56.32
47811;BME280;33575;52.600;7.318;2023-06-14T01:23:02;101493.37;;;18.87;56.24
47811;BME280;33575;52.600;7.318;2023-06-14T01:25:32;101496.22;;;18.83;56.60
47811;BME280;33575;52.600;7.318;2023-06-14T01:28:05;101491.94;;;18.79;57.39
47811;BME280;33575;52.600;7.318;2023-06-14T01:30:33;101491.56;;;18.76;57.59
47811;BME280;33575;52.600;7.318;2023-06-14T01:33:04;101493.31;;;18.71;57.57
47811;BME280;33575;52.600;7.318;2023-06-14T01:35:34;101494.71;;;18.66;57.64
47811;BME280;33575;52.600;7.318;2023-06-14T01:38:06;101492.54;;;18.64;58.04
47811;BME280;33575;52.600;7.318;2023-06-14T01:40:35;101491.50;;;18.62;57.50
47811;BME280;33575;52.600;7.318;2023-06-14T01:43:05;101495.66;;;18.59;57.17
47811;BME280;33575;52.600;7.318;2023-06-14T01:45:36;101496.61;;;18.57;57.22
47811;BME280;33575;52.600;7.318;2023-06-14T01:48:05;101495.80;;;18.53;57.41
47811;BME280;33575;52.600;7.318;2023-06-14T01:50:36;101499.36;;;18.50;57.61
47811;BME280;33575;52.600;7.318;2023-06-14T01:53:08;101496.97;;;18.42;57.64
47811;BME280;33575;52.600;7.318;2023-06-14T01:55:36;101495.57;;;18.37;58.31
47811;BME280;33575;52.600;7.318;2023-06-14T01:58:07;101496.34;;;18.30;58.18
47811;BME280;33575;52.600;7.318;2023-06-14T02:00:37;101498.43;;;18.29;58.23
47811;BME280;33575;52.600;7.318;2023-06-14T02:03:08;101498.71;;;18.22;58.22
47811;BME280;33575;52.600;7.318;2023-06-14T02:05:38;101495.07;;;18.18;58.53
47811;BME280;33575;52.600;7.318;2023-06-14T02:08:08;101495.74;;;18.16;58.59
47811;BME280;33575;52.600;7.318;2023-06-14T02:10:39;101496.12;;;18.14;59.00
47811;BME280;33575;52.600;7.318;2023-06-14T02:13:09;101499.50;;;18.09;59.27
47811;BME280;33575;52.600;7.318;2023-06-14T02:15:39;101501.89;;;18.05;59.39
47811;BME280;33575;52.600;7.318;2023-06-14T02:18:10;101501.63;;;18.02;59.15
47811;BME280;33575;52.600;7.318;2023-06-14T02:20:40;101499.48;;;17.98;59.50
47811;BME280;33575;52.600;7.318;2023-06-14T02:23:10;101499.65;;;17.97;60.02
47811;BME280;33575;52.600;7.318;2023-06-14T02:25:41;101503.44;;;17.98;59.56
47811;BME280;33575;52.600;7.318;2023-06-14T02:28:11;101502.21;;;17.98;59.45
47811;BME280;33575;52.600;7.318;2023-06-14T02:30:42;101509.31;;;17.96;59.38
47811;BME280;33575;52.600;7.318;2023-06-14T02:33:12;101510.30;;;17.90;60.48
47811;BME280;33575;52.600;7.318;2023-06-14T02:35:43;101509.83;;;17.88;60.13
47811;BME280;33575;52.600;7.318;2023-06-14T02:38:13;101508.45;;;17.88;59.90
47811;BME280;33575;52.600;7.318;2023-06-14T02:40:43;101508.26;;;17.90;59.82
47811;BME280;33575;52.600;7.318;2023-06-14T02:43:13;101510.58;;;17.88;60.37
47811;BME280;33575;52.600;7.318;2023-06-14T02:45:44;101510.18;;;17.87;59.83
47811;BME280;33575;52.600;7.318;2023-06-14T02:48:14;101511.74;;;17.83;59.68
47811;BME280;33575;52.600;7.318;2023-06-14T02:50:45;101505.44;;;17.70;60.67
47811;BME280;33575;52.600;7.318;2023-06-14T02:53:15;101509.08;;;17.65;60.39
47811;BME280;33575;52.600;7.318;2023-06-14T02:55:45;101510.65;;;17.60;60.75
47811;BME280;33575;52.600;7.318;2023-06-14T02:58:16;101518.08;;;17.59;60.75
47811;BME280;33575;52.600;7.318;2023-06-14T03:00:46;101517.73;;;17.50;61.36
47811;BME280;33575;52.600;7.318;2023-06-14T03:03:17;101526.41;;;17.43;61.51
47811;BME280;33575;52.600;7.318;2023-06-14T03:05:48;101532.10;;;17.36;61.73
47811;BME280;33575;52.600;7.318;2023-06-14T03:08:17;101534.44;;;17.33;61.37
47811;BME280;33575;52.600;7.318;2023-06-14T03:10:48;101538.99;;;17.31;61.92
47811;BME280;33575;52.600;7.318;2023-06-14T03:13:18;101542.49;;;17.28;61.93
47811;BME280;33575;52.600;7.318;2023-06-14T03:15:49;101543.89;;;17.23;63.09
47811;BME280;33575;52.600;7.318;2023-06-14T03:18:19;101544.25;;;17.22;62.39
47811;BME280;33575;52.600;7.318;2023-06-14T03:20:49;101550.43;;;17.21;62.38
47811;BME280;33575;52.600;7.318;2023-06-14T03:23:20;101551.85;;;17.16;62.94
47811;BME280;33575;52.600;7.318;2023-06-14T03:25:50;101554.94;;;17.10;63.05
47811;BME280;33575;52.600;7.318;2023-06-14T03:28:21;101561.04;;;17.08;62.96
47811;BME280;33575;52.600;7.318;2023-06-14T03:30:51;101562.95;;;17.07;63.18
47811;BME280;33575;52.600;7.318;2023-06-14T03:33:21;101562.34;;;17.03;63.18
47811;BME280;33575;52.600;7.318;2023-06-14T03:35:52;101562.03;;;17.01;63.32
47811;BME280;33575;52.600;7.318;2023-06-14T03:38:22;101566.18;;;17.01;64.06
47811;BME280;33575;52.600;7.318;2023-06-14T03:40:53;101568.57;;;16.99;63.63
47811;BME280;33575;52.600;7.318;2023-06-14T03:43:23;101568.80;;;16.98;63.69
47811;BME280;33575;52.600;7.318;2023-06-14T03:45:53;101571.85;;;16.94;63.95
47811;BME280;33575;52.600;7.318;2023-06-14T03:48:24;101571.96;;;16.94;64.22
47811;BME280;33575;52.600;7.318;2023-06-14T03:50:54;101573.70;;;16.95;64.20
47811;BME280;33575;52.600;7.318;2023-06-14T03:53:24;101580.26;;;16.95;64.14
47811;BME280;33575;52.600;7.318;2023-06-14T03:55:58;101580.36;;;16.97;64.09
47811;BME280;33575;52.600;7.318;2023-06-14T03:58:25;101581.47;;;17.00;64.96
47811;BME280;33575;52.600;7.318;2023-06-14T04:00:55;101585.10;;;16.99;64.34
47811;BME280;33575;52.600;7.318;2023-06-14T04:03:26;101586.52;;;17.01;64.51
47811;BME280;33575;52.600;7.318;2023-06-14T04:05:56;101588.29;;;16.97;65.94
47811;BME280;33575;52.600;7.318;2023-06-14T04:08:27;101590.50;;;16.96;65.60
47811;BME280;33575;52.600;7.318;2023-06-14T04:10:57;101591.83;;;16.94;65.57
47811;BME280;33575;52.600;7.318;2023-06-14T04:13:27;101596.20;;;16.92;65.27
47811;BME280;33575;52.600;7.318;2023-06-14T04:15:58;101598.69;;;16.87;65.35
47811;BME280;33575;52.600;7.318;2023-06-14T04:18:28;101600.74;;;16.86;65.47
47811;BME280;33575;52.600;7.318;2023-06-14T04:20:59;101604.48;;;16.86;65.22
47811;BME280;33575;52.600;7.318;2023-06-14T04:23:29;101609.62;;;16.82;65.74
47811;BME280;33575;52.600;7.318;2023-06-14T04:26:00;101610.88;;;16.76;66.49
47811;BME280;33575;52.600;7.318;2023-06-14T04:28:30;101613.45;;;16.76;66.22
47811;BME280;33575;52.600;7.318;2023-06-14T04:31:00;101614.15;;;16.76;65.89
47811;BME280;33575;52.600;7.318;2023-06-14T04:33:31;101613.07;;;16.80;66.87
47811;BME280;33575;52.600;7.318;2023-06-14T04:36:01;101615.06;;;16.80;66.17
47811;BME280;33575;52.600;7.318;2023-06-14T04:38:31;101616.89;;;16.76;66.11
47811;BME280;33575;52.600;7.318;2023-06-14T04:41:02;101617.80;;;16.80;66.60
47811;BME280;33575;52.600;7.318;2023-06-14T04:43:32;101621.77;;;16.83;66.60
47811;BME280;33575;52.600;7.318;2023-06-14T04:46:03;101626.16;;;16.80;67.20
47811;BME280;33575;52.600;7.318;2023-06-14T04:48:33;101625.48;;;16.77;67.80
47811;BME280;33575;52.600;7.318;2023-06-14T04:51:03;101627.68;;;16.75;67.66
47811;BME280;33575;52.600;7.318;2023-06-14T04:53:34;101629.76;;;16.78;67.65
47811;BME280;33575;52.600;7.318;2023-06-14T04:56:04;101634.45;;;16.83;67.40
47811;BME280;33575;52.600;7.318;2023-06-14T04:58:35;101633.14;;;16.77;68.30
47811;BME280;33575;52.600;7.318;2023-06-14T05:01:05;101632.69;;;16.81;68.52
47811;BME280;33575;52.600;7.318;2023-06-14T05:03:35;101634.88;;;16.85;68.84
47811;BME280;33575;52.600;7.318;2023-06-14T05:06:06;101633.27;;;16.85;68.35
47811;BME280;33575;52.600;7.318;2023-06-14T05:08:36;101634.32;;;16.95;67.67
47811;BME280;33575;52.600;7.318;2023-06-14T05:11:06;101641.44;;;16.97;67.78
47811;BME280;33575;52.600;7.318;2023-06-14T05:13:37;101641.45;;;16.97;68.98
47811;BME280;33575;52.600;7.318;2023-06-14T05:16:07;101639.94;;;17.01;68.60
47811;BME280;33575;52.600;7.318;2023-06-14T05:18:37;101642.55;;;17.08;67.91
47811;BME280;33575;52.600;7.318;2023-06-14T05:21:08;101643.78;;;17.10;67.76
47811;BME280;33575;52.600;7.318;2023-06-14T05:23:38;101646.74;;;17.18;67.49
47811;BME280;33575;52.600;7.318;2023-06-14T05:26:08;101646.44;;;17.20;68.11
47811;BME280;33575;52.600;7.318;2023-06-14T05:28:39;101651.64;;;17.23;67.52
47811;BME280;33575;52.600;7.318;2023-06-14T05:31:09;101650.90;;;17.31;68.12
47811;BME280;33575;52.600;7.318;2023-06-14T05:33:40;101649.27;;;17.36;67.72
47811;BME280;33575;52.600;7.318;2023-06-14T05:36:10;101650.52;;;17.39;67.53
47811;BME280;33575;52.600;7.318;2023-06-14T05:38:40;101654.73;;;17.46;67.84
47811;BME280;33575;52.600;7.318;2023-06-14T05:41:11;101657.65;;;17.48;67.72
47811;BME280;33575;52.600;7.318;2023-06-14T05:43:41;101657.76;;;17.54;67.38
47811;BME280;33575;52.600;7.318;2023-06-14T05:46:11;101656.15;;;17.62;67.80
47811;BME280;33575;52.600;7.318;2023-06-14T05:48:42;101655.82;;;17.68;67.11
47811;BME280;33575;52.600;7.318;2023-06-14T05:51:12;101660.73;;;17.79;66.97
47811;BME280;33575;52.600;7.318;2023-06-14T05:53:43;101663.11;;;17.82;67.38
47811;BME280;33575;52.600;7.318;2023-06-14T05:56:13;101666.29;;;17.87;67.15
47811;BME280;33575;52.600;7.318;2023-06-14T05:58:44;101668.85;;;17.95;66.73
47811;BME280;33575;52.600;7.318;2023-06-14T06:01:14;101667.19;;;18.02;66.32
47811;BME280;33575;52.600;7.318;2023-06-14T06:03:44;101668.52;;;18.11;66.54
47811;BME280;33575;52.600;7.318;2023-06-14T06:06:15;101667.16;;;18.16;67.14
47811;BME280;33575;52.600;7.318;2023-06-14T06:08:45;101669.09;;;18.26;66.09
47811;BME280;33575;52.600;7.318;2023-06-14T06:11:15;101672.14;;;18.28;66.23
47811;BME280;33575;52.600;7.318;2023-06-14T06:13:46;101674.79;;;18.35;66.20
47811;BME280;33575;52.600;7.318;2023-06-14T06:16:16;101678.01;;;18.42;66.95
47811;BME280;33575;52.600;7.318;2023-06-14T06:18:46;101674.67;;;18.51;66.05
47811;BME280;33575;52.600;7.318;2023-06-14T06:21:17;101672.54;;;18.59;66.01
47811;BME280;33575;52.600;7.318;2023-06-14T06:23:47;101676.24;;;18.65;66.61
47811;BME280;33575;52.600;7.318;2023-06-14T06:26:18;101672.68;;;18.74;66.07
47811;BME280;33575;52.600;7.318;2023-06-14T06:28:48;101673.43;;;18.84;65.78
47811;BME280;33575;52.600;7.318;2023-06-14T06:31:18;101678.00;;;18.95;65.42
47811;BME280;33575;52.600;7.318;2023-06-14T06:33:49;101676.38;;;19.00;65.23
47811;BME280;33575;52.600;7.318;2023-06-14T06:36:19;101679.04;;;19.02;65.22
47811;BME280;33575;52.600;7.318;2023-06-14T06:38:50;101681.96;;;19.11;65.10
47811;BME280;33575;52.600;7.318;2023-06-14T06:41:20;101682.55;;;19.20;64.54
47811;BME280;33575;52.600;7.318;2023-06-14T06:43:51;101683.22;;;19.26;64.59
47811;BME280;33575;52.600;7.318;2023-06-14T06:46:21;101683.77;;;19.33;64.24
47811;BME280;33575;52.600;7.318;2023-06-14T06:48:51;101686.61;;;19.42;63.85
47811;BME280;33575;52.600;7.318;2023-06-14T06:51:22;101684.34;;;19.42;63.80
47811;BME280;33575;52.600;7.318;2023-06-14T06:53:53;101687.39;;;19.51;63.95
47811;BME280;33575;52.600;7.318;2023-06-14T06:56:22;101694.07;;;19.57;63.82
47811;BME280;33575;52.600;7.318;2023-06-14T06:58:53;101691.63;;;19.67;63.02
47811;BME280;33575;52.600;7.318;2023-06-14T07:01:23;101700.70;;;19.71;63.62
47811;BME280;33575;52.600;7.318;2023-06-14T07:03:53;101702.28;;;19.83;62.87
47811;BME280;33575;52.600;7.318;2023-06-14T07:06:23;101702.92;;;19.97;62.57
47811;BME280;33575;52.600;7.318;2023-06-14T07:08:54;101703.64;;;20.02;61.93
47811;BME280;33575;52.600;7.318;2023-06-14T07:11:24;101707.99;;;20.09;61.76
47811;BME280;33575;52.600;7.318;2023-06-14T07:13:54;101709.15;;;20.12;60.93
47811;BME280;33575;52.600;7.318;2023-06-14T07:16:25;101716.75;;;20.19;61.43
47811;BME280;33575;52.600;7.318;2023-06-14T07:18:55;101714.37;;;20.22;60.38
47811;BME280;33575;52.600;7.318;2023-06-14T07:21:25;101715.38;;;20.16;59.01
47811;BME280;33575;52.600;7.318;2023-06-14T07:23:56;101721.82;;;20.24;59.47
47811;BME280;33575;52.600;7.318;2023-06-14T07:26:26;101720.18;;;20.29;59.50
47811;BME280;33575;52.600;7.318;2023-06-14T07:28:56;101722.32;;;20.39;58.83
47811;BME280;33575;52.600;7.318;2023-06-14T07:31:27;101724.87;;;20.39;57.57
47811;BME280;33575;52.600;7.318;2023-06-14T07:33:57;101725.24;;;20.40;57.83
47811;BME280;33575;52.600;7.318;2023-06-14T07:36:27;101720.19;;;20.44;58.35
47811;BME280;33575;52.600;7.318;2023-06-14T07:38:58;101720.36;;;20.58;58.38
47811;BME280;33575;52.600;7.318;2023-06-14T07:41:28;101719.58;;;20.69;58.05
47811;BME280;33575;52.600;7.318;2023-06-14T07:43:58;101714.91;;;20.79;58.31
47811;BME280;33575;52.600;7.318;2023-06-14T07:46:28;101717.80;;;20.90;58.06
47811;BME280;33575;52.600;7.318;2023-06-14T07:48:59;101716.61;;;20.99;57.98
47811;BME280;33575;52.600;7.318;2023-06-14T07:51:29;101719.39;;;21.08;56.91
47811;BME280;33575;52.600;7.318;2023-06-14T07:54:00;101721.32;;;21.12;57.05
47811;BME280;33575;52.600;7.318;2023-06-14T07:56:30;101727.56;;;21.19;55.93
47811;BME280;33575;52.600;7.318;2023-06-14T07:59:00;101722.25;;;21.06;55.89
47811;BME280;33575;52.600;7.318;2023-06-14T08:01:30;101726.40;;;21.19;54.81
47811;BME280;33575;52.600;7.318;2023-06-14T08:04:01;101725.47;;;21.29;56.02
47811;BME280;33575;52.600;7.318;2023-06-14T08:06:31;101726.83;;;21.39;55.93
47811;BME280;33575;52.600;7.318;2023-06-14T08:09:01;101730.36;;;21.43;55.51
47811;BME280;33575;52.600;7.318;2023-06-14T08:11:31;101726.76;;;21.43;55.36
47811;BME280;33575;52.600;7.318;2023-06-14T08:14:02;101725.44;;;21.44;54.78
47811;BME280;33575;52.600;7.318;2023-06-14T08:16:32;101727.43;;;21.53;54.84
47811;BME280;33575;52.600;7.318;2023-06-14T08:19:02;101721.52;;;21.49;54.03
47811;BME280;33575;52.600;7.318;2023-06-14T08:21:32;101715.51;;;21.52;54.06
47811;BME280;33575;52.600;7.318;2023-06-14T08:24:03;101722.96;;;21.45;53.99
47811;BME280;33575;52.600;7.318;2023-06-14T08:26:32;101718.31;;;21.49;53.79
47811;BME280;33575;52.600;7.318;2023-06-14T08:29:03;101727.07;;;21.54;53.31
47811;BME280;33575;52.600;7.318;2023-06-14T08:31:33;101720.51;;;21.63;51.97
47811;BME280;33575;52.600;7.318;2023-06-14T08:34:07;101712.08;;;21.65;52.27
47811;BME280;33575;52.600;7.318;2023-06-14T08:36:35;101714.71;;;21.67;52.25
47811;BME280;33575;52.600;7.318;2023-06-14T08:39:04;101716.63;;;21.75;52.37
47811;BME280;33575;52.600;7.318;2023-06-14T08:41:34;101712.72;;;21.82;52.62
47811;BME280;33575;52.600;7.318;2023-06-14T08:44:04;101713.47;;;21.91;52.18
47811;BME280;33575;52.600;7.318;2023-06-14T08:46:35;101710.53;;;22.01;52.46
47811;BME280;33575;52.600;7.318;2023-06-14T08:49:05;101712.99;;;22.06;51.99
47811;BME280;33575;52.600;7.318;2023-06-14T08:51:36;101712.33;;;22.07;50.98
47811;BME280;33575;52.600;7.318;2023-06-14T08:54:05;101714.51;;;22.17;50.73
47811;BME280;33575;52.600;7.318;2023-06-14T08:56:37;101716.14;;;22.18;50.87
47811;BME280;33575;52.600;7.318;2023-06-14T08:59:06;101717.92;;;22.32;50.95
47811;BME280;33575;52.600;7.318;2023-06-14T09:01:37;101706.87;;;22.38;51.32
47811;BME280;33575;52.600;7.318;2023-06-14T09:04:06;101717.64;;;22.53;50.93
47811;BME280;33575;52.600;7.318;2023-06-14T09:06:36;101711.59;;;22.66;51.22
47811;BME280;33575;52.600;7.318;2023-06-14T09:09:07;101705.56;;;22.74;50.53
47811;BME280;33575;52.600;7.318;2023-06-14T09:11:37;101712.78;;;22.76;50.42
47811;BME280;33575;52.600;7.318;2023-06-14T09:14:07;101714.32;;;22.75;49.99
47811;BME280;33575;52.600;7.318;2023-06-14T09:16:37;101715.70;;;22.80;50.31
47811;BME280;33575;52.600;7.318;2023-06-14T09:19:08;101719.53;;;22.91;49.27
47811;BME280;33575;52.600;7.318;2023-06-14T09:21:38;101721.70;;;23.00;49.64
47811;BME280;33575;52.600;7.318;2023-06-14T09:24:13;101725.05;;;23.09;48.65
47811;BME280;33575;52.600;7.318;2023-06-14T09:26:40;101721.26;;;23.12;48.26
47811;BME280;33575;52.600;7.318;2023-06-14T09:29:09;101729.22;;;23.09;47.75
47811;BME280;33575;52.600;7.318;2023-06-14T09:31:39;101716.58;;;22.86;47.79
47811;BME280;33575;52.600;7.318;2023-06-14T09:34:09;101712.03;;;23.05;48.80
47811;BME280;33575;52.600;7.318;2023-06-14T09:36:40;101723.14;;;22.85;47.70
47811;BME280;33575;52.600;7.318;2023-06-14T09:39:09;101727.91;;;22.86;48.96
47811;BME280;33575;52.600;7.318;2023-06-14T09:41:40;101722.99;;;23.07;49.08
47811;BME280;33575;52.600;7.318;2023-06-14T09:44:15;101725.81;;;23.19;49.86
47811;BME280;33575;52.600;7.318;2023-06-14T09:46:40;101725.73;;;23.22;48.43
47811;BME280;33575;52.600;7.318;2023-06-14T09:49:11;101721.66;;;23.40;49.44
47811;BME280;33575;52.600;7.318;2023-06-14T09:51:43;101719.23;;;23.57;48.90
47811;BME280;33575;52.600;7.318;2023-06-14T09:54:14;101721.09;;;23.71;49.06
47811;BME280;33575;52.600;7.318;2023-06-14T09:56:43;101715.17;;;23.81;48.80
47811;BME280;33575;52.600;7.318;2023-06-14T09:59:12;101719.67;;;23.85;48.28
47811;BME280;33575;52.600;7.318;2023-06-14T10:01:43;101720.41;;;23.99;47.51
47811;BME280;33575;52.600;7.318;2023-06-14T10:04:14;101722.87;;;24.14;47.58
47811;BME280;33575;52.600;7.318;2023-06-14T10:06:45;101725.77;;;24.27;47.46
47811;BME280;33575;52.600;7.318;2023-06-14T10:09:12;101724.56;;;24.36;47.51
47811;BME280;33575;52.600;7.318;2023-06-14T10:11:42;101722.76;;;24.35;47.59
47811;BME280;33575;52.600;7.318;2023-06-14T10:14:13;101717.30;;;24.45;47.42
47811;BME280;33575;52.600;7.318;2023-06-14T10:16:49;101722.56;;;24.50;46.84
47811;BME280;33575;52.600;7.318;2023-06-14T10:19:18;101724.41;;;24.51;47.42
47811;BME280;33575;52.600;7.318;2023-06-14T10:21:49;101727.94;;;24.61;45.90
47811;BME280;33575;52.600;7.318;2023-06-14T10:24:16;101718.63;;;24.46;44.67
47811;BME280;33575;52.600;7.318;2023-06-14T10:26:51;101714.52;;;24.57;46.33
47811;BME280;33575;52.600;7.318;2023-06-14T10:29:14;101718.28;;;24.65;45.90
47811;BME280;33575;52.600;7.318;2023-06-14T10:31:44;101715.98;;;24.75;46.32
47811;BME280;33575;52.600;7.318;2023-06-14T10:34:22;101714.31;;;24.92;46.54
47811;BME280;33575;52.600;7.318;2023-06-14T10:36:44;101711.92;;;25.01;46.99
47811;BME280;33575;52.600;7.318;2023-06-14T10:39:17;101716.04;;;25.16;46.20
47811;BME280;33575;52.600;7.318;2023-06-14T10:41:51;101715.44;;;25.16;44.68
47811;BME280;33575;52.600;7.318;2023-06-14T10:46:47;101716.05;;;25.33;45.52
47811;BME280;33575;52.600;7.318;2023-06-14T10:49:16;101713.91;;;25.51;45.26
47811;BME280;33575;52.600;7.318;2023-06-14T10:51:50;101711.30;;;25.53;44.40
47811;BME280;33575;52.600;7.318;2023-06-14T10:54:16;101713.38;;;25.57;44.53
47811;BME280;33575;52.600;7.318;2023-06-14T10:56:46;101706.85;;;25.61;44.28
47811;BME280;33575;52.600;7.318;2023-06-14T10:59:17;101714.99;;;25.64;44.40
47811;BME280;33575;52.600;7.318;2023-06-14T11:01:55;101711.45;;;25.68;42.79
47811;BME280;33575;52.600;7.318;2023-06-14T11:04:19;101703.80;;;25.69;43.51
47811;BME280;33575;52.600;7.318;2023-06-14T11:06:48;101706.74;;;25.72;44.00
47811;BME280;33575;52.600;7.318;2023-06-14T11:11:48;101700.05;;;25.87;43.80
47811;BME280;33575;52.600;7.318;2023-06-14T11:14:17;101697.10;;;25.89;43.87
47811;BME280;33575;52.600;7.318;2023-06-14T11:16:49;101698.54;;;25.97;43.50
47811;BME280;33575;52.600;7.318;2023-06-14T11:19:17;101700.79;;;26.07;43.53
47811;BME280;33575;52.600;7.318;2023-06-14T11:21:48;101692.88;;;26.14;43.63
47811;BME280;33575;52.600;7.318;2023-06-14T11:24:19;101701.22;;;26.16;42.24
47811;BME280;33575;52.600;7.318;2023-06-14T11:26:48;101699.57;;;25.92;41.25
47811;BME280;33575;52.600;7.318;2023-06-14T11:29:20;101694.78;;;25.92;43.29
47811;BME280;33575;52.600;7.318;2023-06-14T11:31:48;101688.92;;;25.82;43.31
47811;BME280;33575;52.600;7.318;2023-06-14T11:34:18;101692.95;;;25.91;43.88
47811;BME280;33575;52.600;7.318;2023-06-14T11:36:48;101686.25;;;25.90;43.21
47811;BME280;33575;52.600;7.318;2023-06-14T11:39:24;101685.15;;;26.02;42.89
47811;BME280;33575;52.600;7.318;2023-06-14T11:41:49;101680.71;;;26.09;42.23
47811;BME280;33575;52.600;7.318;2023-06-14T11:44:19;101674.20;;;26.19;42.75
47811;BME280;33575;52.600;7.318;2023-06-14T11:46:49;101669.26;;;26.22;43.29
47811;BME280;33575;52.600;7.318;2023-06-14T11:49:19;101681.32;;;26.24;42.17
47811;BME280;33575;52.600;7.318;2023-06-14T11:51:49;101677.61;;;26.27;41.49
47811;BME280;33575;52.600;7.318;2023-06-14T11:54:19;101676.34;;;26.32;42.44
47811;BME280;33575;52.600;7.318;2023-06-14T11:56:50;101666.17;;;26.40;42.18
47811;BME280;33575;52.600;7.318;2023-06-14T11:59:20;101670.20;;;26.39;42.68
47811;BME280;33575;52.600;7.318;2023-06-14T12:01:52;101667.08;;;26.41;42.67
47811;BME280;33575;52.600;7.318;2023-06-14T12:04:24;101656.14;;;26.46;42.28
47811;BME280;33575;52.600;7.318;2023-06-14T12:06:50;101669.61;;;26.27;42.85
47811;BME280;33575;52.600;7.318;2023-06-14T12:09:20;101667.57;;;26.16;42.36
47811;BME280;33575;52.600;7.318;2023-06-14T12:11:50;101659.11;;;26.19;42.32
47811;BME280;33575;52.600;7.318;2023-06-14T12:14:28;101668.09;;;26.07;43.38
47811;BME280;33575;52.600;7.318;2023-06-14T12:16:51;101664.70;;;26.12;42.88
47811;BME280;33575;52.600;7.318;2023-06-14T12:19:26;101667.49;;;26.01;43.70
47811;BME280;33575;52.600;7.318;2023-06-14T12:21:51;101667.13;;;26.05;43.18
47811;BME280;33575;52.600;7.318;2023-06-14T12:24:21;101663.78;;;26.01;43.06
47811;BME280;33575;52.600;7.318;2023-06-14T12:26:51;101668.39;;;26.08;43.39
47811;BME280;33575;52.600;7.318;2023-06-14T12:29:21;101670.82;;;25.86;42.08
47811;BME280;33575;52.600;7.318;2023-06-14T12:31:52;101666.09;;;25.90;43.07
47811;BME280;33575;52.600;7.318;2023-06-14T12:34:22;101663.24;;;26.08;43.51
47811;BME280;33575;52.600;7.318;2023-06-14T12:36:52;101664.70;;;26.23;43.60
47811;BME280;33575;52.600;7.318;2023-06-14T12:39:22;101664.51;;;26.22;43.11
47811;BME280;33575;52.600;7.318;2023-06-14T12:41:52;101655.39;;;26.40;42.90
47811;BME280;33575;52.600;7.318;2023-06-14T12:44:22;101650.40;;;26.52;42.55
47811;BME280;33575;52.600;7.318;2023-06-14T12:46:52;101653.91;;;26.55;42.31
47811;BME280;33575;52.600;7.318;2023-06-14T12:49:22;101657.84;;;26.57;42.76
47811;BME280;33575;52.600;7.318;2023-06-14T12:51:53;101664.54;;;26.67;41.97
47811;BME280;33575;52.600;7.318;2023-06-14T12:54:28;101660.04;;;26.74;42.17
47811;BME280;33575;52.600;7.318;2023-06-14T12:56:54;101653.80;;;26.78;42.04
47811;BME280;33575;52.600;7.318;2023-06-14T12:59:24;101666.47;;;26.79;42.42
47811;BME280;33575;52.600;7.318;2023-06-14T13:01:54;101668.20;;;26.78;42.10
47811;BME280;33575;52.600;7.318;2023-06-14T13:04:24;101668.85;;;26.74;42.02
47811;BME280;33575;52.600;7.318;2023-06-14T13:06:54;101658.80;;;26.78;42.27
47811;BME280;33575;52.600;7.318;2023-06-14T13:09:24;101663.00;;;26.85;41.43